createdAt,value
2022-08-17T00:00:35.006Z,65.02
2022-08-17T00:03:19.095Z,64.93
2022-08-17T00:06:08.670Z,64.27
2022-08-17T00:08:48.178Z,66.94
2022-08-17T00:11:25.282Z,64.84
2022-08-17T00:13:59.378Z,65.37
2022-08-17T00:16:56.345Z,65.48
2022-08-17T00:19:26.470Z,64.53
2022-08-17T00:22:31.938Z,65.50
2022-08-17T00:24:46.027Z,64.88
2022-08-17T00:27:13.876Z,65.45
2022-08-17T00:29:42.380Z,65.90
2022-08-17T00:33:15.409Z,65.87
2022-08-17T00:34:58.292Z,66.57
2022-08-17T00:37:26.058Z,66.43
2022-08-17T00:39:53.837Z,65.72
2022-08-17T00:42:21.590Z,66.23
2022-08-17T00:44:49.409Z,66.91
2022-08-17T00:47:17.358Z,66.53
2022-08-17T00:49:45.223Z,66.62
2022-08-17T00:52:20.641Z,68.17
2022-08-17T00:54:54.105Z,67.30
2022-08-17T00:57:31.233Z,68.89
2022-08-17T01:00:14.634Z,67.81
2022-08-17T01:02:46.386Z,68.54
2022-08-17T01:05:23.831Z,69.38
2022-08-17T01:07:54.358Z,67.29
2022-08-17T01:11:00.335Z,68.97
2022-08-17T01:13:42.562Z,69.39
2022-08-17T01:16:21.864Z,69.61
2022-08-17T01:18:54.402Z,68.81
2022-08-17T01:21:40.713Z,67.81
2022-08-17T01:24:08.808Z,67.17
2022-08-17T01:26:40.425Z,68.20
2022-08-17T01:29:08.577Z,66.98
2022-08-17T01:31:43.196Z,67.27
2022-08-17T01:34:14.531Z,68.13
2022-08-17T01:36:47.317Z,66.79
2022-08-17T01:39:40.652Z,69.58
2022-08-17T01:42:23.930Z,67.63
2022-08-17T01:44:56.853Z,69.49
2022-08-17T01:47:25.201Z,67.10
2022-08-17T01:49:52.984Z,67.60
2022-08-17T01:52:22.141Z,67.22
2022-08-17T01:54:52.457Z,67.88
2022-08-17T01:57:20.299Z,67.92
2022-08-17T01:59:48.438Z,67.79
2022-08-17T02:02:30.475Z,68.76
2022-08-17T02:04:59.829Z,70.60
2022-08-17T02:07:28.351Z,68.30
2022-08-17T02:09:56.693Z,67.56
2022-08-17T02:12:39.479Z,69.01
2022-08-17T02:15:10.442Z,68.07
2022-08-17T02:17:40.760Z,69.06
2022-08-17T02:20:10.859Z,68.68
2022-08-17T02:22:42.345Z,68.71
2022-08-17T02:25:15.143Z,67.98
2022-08-17T02:27:43.294Z,68.05
2022-08-17T02:31:00.666Z,68.55
2022-08-17T02:33:04.212Z,68.26
2022-08-17T02:35:35.193Z,68.27
2022-08-17T02:38:06.268Z,68.08
2022-08-17T02:40:35.714Z,67.76
2022-08-17T02:43:05.347Z,68.10
2022-08-17T02:45:33.373Z,67.74
2022-08-17T02:48:01.581Z,68.42
2022-08-17T02:50:29.772Z,68.88
2022-08-17T02:53:02.236Z,68.99
2022-08-17T02:55:37.267Z,69.90
2022-08-17T02:58:05.860Z,68.74
2022-08-17T03:00:41.109Z,69.49
2022-08-17T03:03:11.290Z,68.42
2022-08-17T03:05:39.998Z,68.59
2022-08-17T03:08:10.481Z,68.77
2022-08-17T03:10:42.690Z,68.70
2022-08-17T03:13:12.970Z,68.71
2022-08-17T03:15:45.221Z,68.87
2022-08-17T03:18:20.102Z,68.65
2022-08-17T03:21:01.778Z,69.10
2022-08-17T03:23:31.298Z,68.87
2022-08-17T03:26:00.840Z,71.48
2022-08-17T03:28:28.716Z,68.21
2022-08-17T03:30:56.661Z,68.67
2022-08-17T03:33:24.563Z,68.55
2022-08-17T03:35:52.702Z,68.74
2022-08-17T03:38:21.357Z,67.97
2022-08-17T03:40:56.852Z,68.55
2022-08-17T03:43:31.612Z,69.16
2022-08-17T03:46:28.659Z,68.65
2022-08-17T03:49:26.835Z,70.10
2022-08-17T03:52:16.010Z,69.17
2022-08-17T03:55:03.879Z,69.32
2022-08-17T03:57:32.597Z,69.95
2022-08-17T04:00:00.508Z,69.27
2022-08-17T04:02:34.000Z,69.67
2022-08-17T04:05:01.970Z,69.29
2022-08-17T04:07:31.873Z,69.40
2022-08-17T04:10:00.348Z,69.52
2022-08-17T04:12:42.254Z,69.61
2022-08-17T04:15:12.690Z,69.70
2022-08-17T04:17:40.802Z,69.15
2022-08-17T04:20:09.653Z,70.48
2022-08-17T04:22:37.650Z,69.20
2022-08-17T04:25:17.276Z,72.25
2022-08-17T04:27:45.155Z,70.68
2022-08-17T04:30:13.605Z,70.70
2022-08-17T04:33:07.223Z,72.39
2022-08-17T04:35:43.563Z,70.68
2022-08-17T04:38:18.031Z,71.08
2022-08-17T04:41:04.958Z,70.68
2022-08-17T04:43:35.354Z,70.87
2022-08-17T04:46:17.149Z,71.64
2022-08-17T04:48:57.812Z,69.83
2022-08-17T04:51:35.260Z,70.28
2022-08-17T04:54:09.401Z,70.46
2022-08-17T04:56:38.839Z,70.07
2022-08-17T04:59:17.995Z,71.52
2022-08-17T05:01:49.031Z,69.20
2022-08-17T05:04:33.910Z,70.61
2022-08-17T05:07:04.736Z,69.10
2022-08-17T05:09:32.760Z,69.56
2022-08-17T05:12:04.781Z,69.58
2022-08-17T05:14:33.717Z,69.36
2022-08-17T05:17:09.624Z,69.13
2022-08-17T05:19:39.583Z,69.40
2022-08-17T05:22:07.845Z,69.34
2022-08-17T05:24:43.141Z,69.43
2022-08-17T05:27:19.062Z,69.50
2022-08-17T05:29:47.126Z,68.55
2022-08-17T05:32:38.034Z,69.00
2022-08-17T05:35:04.195Z,68.86
2022-08-17T05:37:32.011Z,69.16
2022-08-17T05:40:00.040Z,68.81
2022-08-17T05:42:27.989Z,69.02
2022-08-17T05:44:58.092Z,68.49
2022-08-17T05:47:26.578Z,71.41
2022-08-17T05:49:55.030Z,68.53
2022-08-17T05:53:10.249Z,69.90
2022-08-17T05:55:52.924Z,69.88
2022-08-17T05:58:39.482Z,68.94
2022-08-17T06:01:32.395Z,68.43
2022-08-17T06:04:41.028Z,68.25
2022-08-17T06:07:50.195Z,67.55
2022-08-17T06:11:05.427Z,67.08
2022-08-17T06:13:39.089Z,66.69
2022-08-17T06:16:34.010Z,66.66
2022-08-17T06:19:33.644Z,67.72
2022-08-17T06:22:05.858Z,66.28
2022-08-17T06:24:42.940Z,65.64
2022-08-17T06:27:32.013Z,65.56
2022-08-17T06:30:16.112Z,65.46
2022-08-17T06:32:48.637Z,65.45
2022-08-17T06:35:44.605Z,65.58
2022-08-17T06:39:01.917Z,65.52
2022-08-17T06:41:45.634Z,64.64
2022-08-17T06:44:43.583Z,63.97
2022-08-17T06:47:53.283Z,63.56
2022-08-17T06:50:51.326Z,63.15
2022-08-17T06:53:31.964Z,63.11
2022-08-17T06:56:54.631Z,62.31
2022-08-17T06:59:53.232Z,62.57
2022-08-17T07:02:52.554Z,62.12
2022-08-17T07:05:36.796Z,59.63
2022-08-17T07:08:30.035Z,57.26
2022-08-17T07:11:09.819Z,56.29
2022-08-17T07:14:17.120Z,56.57
2022-08-17T07:16:50.923Z,55.40
2022-08-17T07:19:23.802Z,53.59
2022-08-17T07:22:50.350Z,54.06
2022-08-17T07:25:22.590Z,54.55
2022-08-17T07:28:02.488Z,51.89
2022-08-17T07:31:01.030Z,49.70
2022-08-17T07:33:35.010Z,52.30
2022-08-17T07:36:03.409Z,52.92
2022-08-17T07:38:34.363Z,51.61
2022-08-17T07:41:08.231Z,50.60
2022-08-17T07:43:42.249Z,48.76
2022-08-17T07:46:55.266Z,48.68
2022-08-17T07:49:32.904Z,47.41
2022-08-17T07:52:51.409Z,47.41
2022-08-17T07:55:35.112Z,46.57
2022-08-17T07:58:03.773Z,46.05
2022-08-17T08:00:33.772Z,46.06
2022-08-17T08:03:28.539Z,45.52
2022-08-17T08:06:02.404Z,44.29
2022-08-17T08:08:35.732Z,46.58
2022-08-17T08:11:15.538Z,45.53
2022-08-17T08:13:46.148Z,43.93
2022-08-17T08:16:17.026Z,44.27
2022-08-17T08:18:56.891Z,43.14
2022-08-17T08:21:51.543Z,43.49
2022-08-17T08:24:37.197Z,44.51
2022-08-17T08:27:28.842Z,42.52
2022-08-17T08:30:21.604Z,42.02
2022-08-17T08:33:28.969Z,43.18
2022-08-17T08:37:15.845Z,42.84
2022-08-17T08:39:48.113Z,42.00
2022-08-17T08:42:37.379Z,41.85
2022-08-17T08:45:14.111Z,42.19
2022-08-17T08:47:53.994Z,40.92
2022-08-17T08:50:48.880Z,40.36
2022-08-17T08:54:16.658Z,40.23
2022-08-17T08:57:29.210Z,40.66
2022-08-17T09:00:24.857Z,41.92
2022-08-17T09:03:52.706Z,40.20
2022-08-17T09:06:59.577Z,39.04
2022-08-17T09:09:59.411Z,39.39
2022-08-17T09:12:45.259Z,39.54
2022-08-17T09:15:25.761Z,39.42
2022-08-17T09:19:00.554Z,39.18
2022-08-17T09:21:14.237Z,37.98
2022-08-17T09:24:12.816Z,38.30
2022-08-17T09:27:13.498Z,38.20
2022-08-17T09:29:59.167Z,38.80
2022-08-17T09:32:58.962Z,37.42
2022-08-17T09:35:45.154Z,37.39
2022-08-17T09:38:32.634Z,37.72
2022-08-17T09:41:37.245Z,35.82
2022-08-17T09:44:23.244Z,36.85
2022-08-17T09:47:17.551Z,37.05
2022-08-17T09:50:12.976Z,36.37
2022-08-17T09:52:42.407Z,35.63
2022-08-17T09:55:10.373Z,35.99
2022-08-17T09:58:05.330Z,36.27
2022-08-17T10:00:39.496Z,35.50
2022-08-17T10:03:49.204Z,35.11
2022-08-17T10:06:35.558Z,35.01
2022-08-17T10:09:22.577Z,34.42
2022-08-17T10:12:30.103Z,35.44
2022-08-17T10:15:22.516Z,35.62
2022-08-17T10:18:08.569Z,36.41
2022-08-17T10:21:30.661Z,35.66
2022-08-17T10:25:02.021Z,34.83
2022-08-17T10:27:52.779Z,34.00
2022-08-17T10:30:26.775Z,34.52
2022-08-17T10:33:03.053Z,34.17
2022-08-17T10:36:01.651Z,35.33
2022-08-17T10:38:48.533Z,34.15
2022-08-17T10:41:43.229Z,35.09
2022-08-17T10:44:56.556Z,32.13
2022-08-17T10:47:27.128Z,33.88
2022-08-17T10:49:56.144Z,33.65
2022-08-17T10:52:24.966Z,33.74
2022-08-17T10:54:58.742Z,32.93
2022-08-17T10:57:29.927Z,33.02
2022-08-17T11:00:17.623Z,32.34
2022-08-17T11:02:57.629Z,33.01
2022-08-17T11:06:12.774Z,32.33
2022-08-17T11:09:06.487Z,33.73
2022-08-17T11:12:31.211Z,31.18
2022-08-17T11:15:25.193Z,33.54
2022-08-17T11:18:19.999Z,33.76
2022-08-17T11:21:13.173Z,33.34
2022-08-17T11:24:16.761Z,33.63
2022-08-17T11:27:21.876Z,32.38
2022-08-17T11:30:12.561Z,32.11
2022-08-17T11:32:48.630Z,32.48
2022-08-17T11:35:20.821Z,31.73
2022-08-17T11:38:25.171Z,31.51
2022-08-17T11:41:29.342Z,30.98
2022-08-17T11:44:32.526Z,31.92
2022-08-17T11:48:16.378Z,30.77
2022-08-17T12:00:56.727Z,33.80
2022-08-17T12:03:33.496Z,32.14
2022-08-17T12:06:18.818Z,33.04
2022-08-17T12:09:00.555Z,32.86
2022-08-17T12:11:56.277Z,33.64
2022-08-17T12:15:05.893Z,33.33
2022-08-17T12:17:40.417Z,33.66
2022-08-17T12:20:19.817Z,34.63
2022-08-17T12:23:08.749Z,34.70
2022-08-17T12:26:06.298Z,33.47
2022-08-17T12:28:44.100Z,33.96
2022-08-17T12:31:27.340Z,33.37
2022-08-17T12:33:55.520Z,32.81
2022-08-17T12:36:28.839Z,33.00
2022-08-17T12:39:13.306Z,32.67
2022-08-17T12:41:47.758Z,32.71
2022-08-17T12:44:30.048Z,31.70
2022-08-17T12:47:22.753Z,31.47
2022-08-17T12:50:03.785Z,32.47
2022-08-17T12:52:33.322Z,31.77
2022-08-17T12:55:07.875Z,31.74
2022-08-17T12:57:38.630Z,31.78
2022-08-17T13:00:22.103Z,31.91
2022-08-17T13:03:19.386Z,32.00
2022-08-17T13:05:53.040Z,31.46
2022-08-17T13:08:47.749Z,31.39
2022-08-17T13:11:16.472Z,32.76
2022-08-17T13:13:51.512Z,32.67
2022-08-17T13:16:26.656Z,31.95
2022-08-17T13:19:07.818Z,31.99
2022-08-17T13:21:38.001Z,32.08
2022-08-17T13:24:17.650Z,31.14
2022-08-17T13:27:11.895Z,31.51
2022-08-17T13:29:53.691Z,31.37
2022-08-17T13:32:46.603Z,31.64
2022-08-17T13:35:51.601Z,31.53
2022-08-17T13:38:51.154Z,30.91
2022-08-17T13:41:37.269Z,30.09
2022-08-17T13:44:39.493Z,30.03
2022-08-17T13:47:21.234Z,30.76
2022-08-17T13:49:49.635Z,31.07
2022-08-17T13:52:40.975Z,29.04
2022-08-17T13:55:22.166Z,29.45
2022-08-17T13:58:04.986Z,32.03
2022-08-17T14:00:36.755Z,31.60
2022-08-17T14:03:05.530Z,30.03
2022-08-17T14:05:34.026Z,30.16
2022-08-17T14:08:07.222Z,30.97
2022-08-17T14:10:36.728Z,30.72
2022-08-17T14:13:07.054Z,31.24
2022-08-17T14:15:56.154Z,30.67
2022-08-17T14:18:31.231Z,30.16
2022-08-17T14:21:10.924Z,30.39
2022-08-17T14:23:38.696Z,30.25
2022-08-17T14:26:06.702Z,31.08
2022-08-17T14:28:36.485Z,29.79
2022-08-17T14:31:07.492Z,29.29
2022-08-17T14:33:35.589Z,29.19
2022-08-17T14:36:04.688Z,31.07
2022-08-17T14:38:35.906Z,29.14
2022-08-17T14:41:05.065Z,28.74
2022-08-17T14:43:35.340Z,28.87
2022-08-17T14:46:03.115Z,30.29
2022-08-17T14:48:38.459Z,29.48
2022-08-17T14:51:07.553Z,28.58
2022-08-17T14:53:36.468Z,29.03
2022-08-17T14:56:04.941Z,29.64
2022-08-17T14:58:32.752Z,28.46
2022-08-17T15:01:00.829Z,28.40
2022-08-17T15:03:29.462Z,27.74
2022-08-17T15:05:57.284Z,28.24
2022-08-17T15:08:25.526Z,27.40
2022-08-17T15:10:54.546Z,27.19
2022-08-17T15:13:26.467Z,27.69
2022-08-17T15:15:54.728Z,28.30
2022-08-17T15:18:22.929Z,28.37
2022-08-17T15:20:50.862Z,28.57
2022-08-17T15:23:22.624Z,27.77
2022-08-17T15:25:53.551Z,27.63
2022-08-17T15:28:25.064Z,27.93
2022-08-17T15:30:54.632Z,28.09
2022-08-17T15:33:30.181Z,28.44
2022-08-17T15:36:01.706Z,28.84
2022-08-17T15:38:35.340Z,29.16
2022-08-17T15:41:04.181Z,30.11
2022-08-17T15:43:36.460Z,30.52
2022-08-17T15:46:21.096Z,30.50
2022-08-17T15:48:53.083Z,30.95
2022-08-17T15:51:26.434Z,31.44
2022-08-17T15:54:04.403Z,31.43
2022-08-17T15:56:47.198Z,31.64
2022-08-17T15:59:16.590Z,31.56
2022-08-17T16:03:01.589Z,32.12
2022-08-17T16:04:32.409Z,32.13
2022-08-17T16:07:00.529Z,32.57
2022-08-17T16:09:28.789Z,32.69
2022-08-17T16:11:56.836Z,32.33
2022-08-17T16:14:34.812Z,32.77
2022-08-17T16:17:05.345Z,33.04
2022-08-17T16:19:53.251Z,33.01
2022-08-17T16:22:37.616Z,33.08
2022-08-17T16:25:21.546Z,33.31
2022-08-17T16:27:53.597Z,33.54
2022-08-17T16:30:27.844Z,33.77
2022-08-17T16:32:59.027Z,34.02
2022-08-17T16:35:29.713Z,34.37
2022-08-17T16:37:58.940Z,34.23
2022-08-17T16:40:33.097Z,34.47
2022-08-17T16:43:10.613Z,34.02
2022-08-17T16:45:40.811Z,34.23
2022-08-17T16:48:09.846Z,35.05
2022-08-17T16:50:37.956Z,35.57
2022-08-17T16:53:16.258Z,37.26
2022-08-17T16:55:49.682Z,37.59
2022-08-17T16:58:18.818Z,37.36
2022-08-17T17:00:48.876Z,38.20
2022-08-17T17:03:24.999Z,39.46
2022-08-17T17:06:45.245Z,40.29
2022-08-17T17:09:23.141Z,40.75
2022-08-17T17:11:57.243Z,41.38
2022-08-17T17:14:35.793Z,41.68
2022-08-17T17:17:17.610Z,41.90
2022-08-17T17:20:16.410Z,43.04
2022-08-17T17:22:57.900Z,43.61
2022-08-17T17:25:54.790Z,44.28
2022-08-17T17:28:44.344Z,43.86
2022-08-17T17:31:45.238Z,44.74
2022-08-17T17:34:16.703Z,44.00
2022-08-17T17:36:58.145Z,45.34
2022-08-17T17:39:49.114Z,45.64
2022-08-17T17:42:22.127Z,45.57
2022-08-17T17:45:17.051Z,47.57
2022-08-17T17:47:45.944Z,45.70
2022-08-17T17:50:16.993Z,45.93
2022-08-17T17:53:02.198Z,47.47
2022-08-17T17:55:30.034Z,46.24
2022-08-17T17:58:33.408Z,49.05
2022-08-17T18:01:16.191Z,49.07
2022-08-17T18:04:20.296Z,49.98
2022-08-17T18:06:57.774Z,47.37
2022-08-17T18:09:53.873Z,50.52
2022-08-17T18:13:17.953Z,51.21
2022-08-17T18:15:54.477Z,50.27
2022-08-17T18:18:38.923Z,52.10
2022-08-17T18:21:16.422Z,51.24
2022-08-17T18:24:01.931Z,52.17
2022-08-17T18:27:01.239Z,52.49
2022-08-17T18:29:31.962Z,50.64
2022-08-17T18:32:43.252Z,53.10
2022-08-17T18:35:14.749Z,52.03
2022-08-17T18:37:56.516Z,53.83
2022-08-17T18:40:35.758Z,53.06
2022-08-17T18:43:28.342Z,53.84
2022-08-17T18:46:28.379Z,54.68
2022-08-17T18:49:06.875Z,52.71
2022-08-17T18:51:42.862Z,54.04
2022-08-17T18:54:24.613Z,55.13
2022-08-17T18:57:00.690Z,55.16
2022-08-17T18:59:38.295Z,56.07
2022-08-17T19:05:27.214Z,55.91
2022-08-17T19:08:35.551Z,55.78
2022-08-17T19:11:20.799Z,55.98
2022-08-17T19:14:01.029Z,56.02
2022-08-17T19:16:55.761Z,54.03
2022-08-17T19:20:00.276Z,57.24
2022-08-17T19:22:47.290Z,57.26
2022-08-17T19:25:23.742Z,55.90
2022-08-17T19:28:20.503Z,56.25
2022-08-17T19:30:59.504Z,56.61
2022-08-17T19:33:27.634Z,54.52
2022-08-17T19:36:07.379Z,55.33
2022-08-17T19:38:48.449Z,55.20
2022-08-17T19:41:51.212Z,58.22
2022-08-17T19:44:32.242Z,56.75
2022-08-17T19:47:36.650Z,58.51
2022-08-17T19:50:09.295Z,56.13
2022-08-17T19:53:18.540Z,58.27
2022-08-17T19:56:11.235Z,56.68
2022-08-17T19:59:01.175Z,56.61
2022-08-17T20:02:02.985Z,56.82
2022-08-17T20:04:45.306Z,57.84
2022-08-17T20:07:22.230Z,60.03
2022-08-17T20:09:55.621Z,59.40
2022-08-17T20:12:38.373Z,59.65
2022-08-17T20:15:18.737Z,59.92
2022-08-17T20:17:48.191Z,59.16
2022-08-17T20:20:49.760Z,61.15
2022-08-17T20:23:28.773Z,60.48
2022-08-17T20:26:23.257Z,60.46
2022-08-17T20:29:10.402Z,60.68
2022-08-17T20:31:46.439Z,60.28
2022-08-17T20:34:33.477Z,60.96
2022-08-17T20:37:33.081Z,60.36
2022-08-17T20:40:01.158Z,59.19
2022-08-17T20:42:33.971Z,60.26
2022-08-17T20:45:26.494Z,59.09
2022-08-17T20:48:35.024Z,60.41
2022-08-17T20:51:01.086Z,61.89
2022-08-17T20:53:47.369Z,62.06
2022-08-17T20:56:46.662Z,62.00
2022-08-17T20:59:26.086Z,61.51
2022-08-17T21:02:12.353Z,62.46
2022-08-17T21:04:54.487Z,61.70
2022-08-17T21:07:53.268Z,62.16
2022-08-17T21:10:26.298Z,60.79
2022-08-17T21:13:03.038Z,60.84
2022-08-17T21:15:42.716Z,61.72
2022-08-17T21:18:42.760Z,62.05
2022-08-17T21:21:26.312Z,63.00
2022-08-17T21:24:15.003Z,62.53
2022-08-17T21:27:23.787Z,63.05
2022-08-17T21:30:16.374Z,61.79
2022-08-17T21:33:12.003Z,61.25
2022-08-17T21:36:11.831Z,63.62
2022-08-17T21:38:48.874Z,62.79
2022-08-17T21:41:33.560Z,63.22
2022-08-17T21:44:27.782Z,63.76
2022-08-17T21:47:23.972Z,64.17
2022-08-17T21:49:54.594Z,62.55
2022-08-17T21:52:27.107Z,62.69
2022-08-17T21:55:02.554Z,63.77
2022-08-17T21:57:35.132Z,62.60
2022-08-17T22:00:16.433Z,64.03
2022-08-17T22:02:56.600Z,61.90
2022-08-17T22:05:38.550Z,63.30
2022-08-17T22:08:20.129Z,64.25
2022-08-17T22:10:50.773Z,62.19
2022-08-17T22:13:18.515Z,62.24
2022-08-17T22:16:27.899Z,64.07
2022-08-17T22:18:58.295Z,63.16
2022-08-17T22:21:26.961Z,62.58
2022-08-17T22:24:07.101Z,63.47
2022-08-17T22:27:12.085Z,63.82
2022-08-17T22:29:58.276Z,63.52
2022-08-17T22:32:48.527Z,64.65
2022-08-17T22:35:34.590Z,63.84
2022-08-17T22:38:20.805Z,64.59
2022-08-17T22:41:18.969Z,65.37
2022-08-17T22:43:48.243Z,63.29
2022-08-17T22:46:16.321Z,63.64
2022-08-17T22:48:59.492Z,65.82
2022-08-17T22:51:31.133Z,64.64
2022-08-17T22:54:34.504Z,65.31
2022-08-17T22:57:23.847Z,63.73
2022-08-17T22:59:55.910Z,64.28
2022-08-17T23:02:26.586Z,63.47
2022-08-17T23:05:10.257Z,65.49
2022-08-17T23:07:38.409Z,63.39
2022-08-17T23:10:09.591Z,63.57
2022-08-17T23:12:39.062Z,63.88
2022-08-17T23:15:18.157Z,65.50
2022-08-17T23:17:46.510Z,63.60
2022-08-17T23:20:17.643Z,64.31
2022-08-17T23:22:51.921Z,63.83
2022-08-17T23:25:33.599Z,65.68
2022-08-17T23:28:04.901Z,64.51
2022-08-17T23:30:40.067Z,63.89
2022-08-17T23:33:21.348Z,64.43
2022-08-17T23:35:49.204Z,65.10
2022-08-17T23:38:17.252Z,64.95
2022-08-17T23:40:45.157Z,64.48
2022-08-17T23:43:23.975Z,65.11
2022-08-17T23:46:00.079Z,65.74
2022-08-17T23:48:36.224Z,63.84
2022-08-17T23:51:14.709Z,65.62
2022-08-17T23:53:48.247Z,65.24
2022-08-17T23:56:20.630Z,64.09
2022-08-17T23:58:48.466Z,63.97
